sensor_id;sensor_type;location;lat;lon;timestamp;P1;durP1;ratioP1;P2;durP2;ratioP2
47009;SDS011;59230;54.164;-3.124;2023-08-12T00:01:34;49.17;;;6.50;;
47009;SDS011;59230;54.164;-3.124;2023-08-12T00:04:00;44.60;;;6.10;;
47009;SDS011;59230;54.164;-3.124;2023-08-12T00:06:25;47.22;;;6.05;;
47009;SDS011;59230;54.164;-3.124;2023-08-12T00:08:51;48.45;;;6.18;;
47009;SDS011;59230;54.164;-3.124;2023-08-12T00:11:16;39.50;;;6.80;;
47009;SDS011;59230;54.164;-3.124;2023-08-12T00:13:42;55.72;;;7.43;;
47009;SDS011;59230;54.164;-3.124;2023-08-12T00:16:07;44.33;;;6.53;;
47009;SDS011;59230;54.164;-3.124;2023-08-12T00:18:33;50.72;;;7.15;;
47009;SDS011;59230;54.164;-3.124;2023-08-12T00:21:05;40.95;;;5.95;;
47009;SDS011;59230;54.164;-3.124;2023-08-12T00:23:32;40.58;;;6.28;;
47009;SDS011;59230;54.164;-3.124;2023-08-12T00:25:58;42.05;;;6.70;;
47009;SDS011;59230;54.164;-3.124;2023-08-12T00:28:23;45.40;;;7.25;;
47009;SDS011;59230;54.164;-3.124;2023-08-12T00:30:49;44.78;;;6.80;;
47009;SDS011;59230;54.164;-3.124;2023-08-12T00:33:14;44.75;;;7.40;;
47009;SDS011;59230;54.164;-3.124;2023-08-12T00:35:40;47.42;;;6.22;;
47009;SDS011;59230;54.164;-3.124;2023-08-12T00:38:05;52.25;;;6.53;;
47009;SDS011;59230;54.164;-3.124;2023-08-12T00:40:31;39.38;;;6.47;;
47009;SDS011;59230;54.164;-3.124;2023-08-12T00:42:56;44.38;;;6.53;;
47009;SDS011;59230;54.164;-3.124;2023-08-12T00:45:22;40.65;;;6.00;;
47009;SDS011;59230;54.164;-3.124;2023-08-12T00:47:47;39.45;;;6.97;;
47009;SDS011;59230;54.164;-3.124;2023-08-12T00:50:13;35.03;;;6.32;;
47009;SDS011;59230;54.164;-3.124;2023-08-12T00:52:39;55.72;;;6.78;;
47009;SDS011;59230;54.164;-3.124;2023-08-12T00:55:05;39.95;;;7.03;;
47009;SDS011;59230;54.164;-3.124;2023-08-12T00:57:30;45.70;;;6.78;;
47009;SDS011;59230;54.164;-3.124;2023-08-12T00:59:56;44.13;;;6.68;;
47009;SDS011;59230;54.164;-3.124;2023-08-12T01:02:22;34.78;;;6.13;;
47009;SDS011;59230;54.164;-3.124;2023-08-12T01:04:47;44.83;;;7.00;;
47009;SDS011;59230;54.164;-3.124;2023-08-12T01:07:13;40.70;;;7.57;;
47009;SDS011;59230;54.164;-3.124;2023-08-12T01:09:38;47.40;;;6.88;;
47009;SDS011;59230;54.164;-3.124;2023-08-12T01:12:12;36.25;;;6.00;;
47009;SDS011;59230;54.164;-3.124;2023-08-12T01:14:45;37.65;;;5.88;;
47009;SDS011;59230;54.164;-3.124;2023-08-12T01:17:22;39.92;;;6.65;;
47009;SDS011;59230;54.164;-3.124;2023-08-12T01:19:48;44.30;;;7.72;;
47009;SDS011;59230;54.164;-3.124;2023-08-12T01:22:17;35.65;;;6.07;;
47009;SDS011;59230;54.164;-3.124;2023-08-12T01:24:45;41.25;;;6.47;;
47009;SDS011;59230;54.164;-3.124;2023-08-12T01:27:11;46.35;;;6.78;;
47009;SDS011;59230;54.164;-3.124;2023-08-12T01:29:39;43.40;;;6.70;;
47009;SDS011;59230;54.164;-3.124;2023-08-12T01:32:14;39.22;;;6.85;;
47009;SDS011;59230;54.164;-3.124;2023-08-12T01:37:57;39.35;;;6.38;;
47009;SDS011;59230;54.164;-3.124;2023-08-12T01:40:23;41.10;;;6.70;;
47009;SDS011;59230;54.164;-3.124;2023-08-12T01:42:49;51.47;;;6.97;;
47009;SDS011;59230;54.164;-3.124;2023-08-12T01:45:15;50.05;;;6.57;;
47009;SDS011;59230;54.164;-3.124;2023-08-12T01:47:43;46.83;;;6.88;;
47009;SDS011;59230;54.164;-3.124;2023-08-12T01:50:09;45.40;;;6.82;;
47009;SDS011;59230;54.164;-3.124;2023-08-12T01:52:35;46.50;;;6.68;;
47009;SDS011;59230;54.164;-3.124;2023-08-12T01:55:00;51.63;;;6.68;;
47009;SDS011;59230;54.164;-3.124;2023-08-12T01:57:25;37.22;;;5.22;;
47009;SDS011;59230;54.164;-3.124;2023-08-12T01:59:51;47.63;;;6.20;;
47009;SDS011;59230;54.164;-3.124;2023-08-12T02:02:16;51.72;;;6.55;;
47009;SDS011;59230;54.164;-3.124;2023-08-12T02:04:42;47.70;;;6.72;;
47009;SDS011;59230;54.164;-3.124;2023-08-12T02:07:09;50.08;;;6.57;;
47009;SDS011;59230;54.164;-3.124;2023-08-12T02:09:34;55.40;;;7.40;;
47009;SDS011;59230;54.164;-3.124;2023-08-12T02:11:59;39.88;;;6.38;;
47009;SDS011;59230;54.164;-3.124;2023-08-12T02:14:25;41.20;;;6.50;;
47009;SDS011;59230;54.164;-3.124;2023-08-12T02:16:51;52.10;;;7.40;;
47009;SDS011;59230;54.164;-3.124;2023-08-12T02:19:21;44.33;;;7.22;;
47009;SDS011;59230;54.164;-3.124;2023-08-12T02:21:46;40.65;;;6.38;;
47009;SDS011;59230;54.164;-3.124;2023-08-12T02:24:11;46.50;;;6.82;;
47009;SDS011;59230;54.164;-3.124;2023-08-12T02:26:37;33.92;;;6.13;;
47009;SDS011;59230;54.164;-3.124;2023-08-12T02:29:03;48.10;;;6.78;;
47009;SDS011;59230;54.164;-3.124;2023-08-12T02:31:28;37.42;;;6.18;;
47009;SDS011;59230;54.164;-3.124;2023-08-12T02:33:54;41.08;;;6.15;;
47009;SDS011;59230;54.164;-3.124;2023-08-12T02:36:19;36.22;;;5.72;;
47009;SDS011;59230;54.164;-3.124;2023-08-12T02:38:45;37.85;;;7.07;;
47009;SDS011;59230;54.164;-3.124;2023-08-12T02:41:10;44.53;;;7.68;;
47009;SDS011;59230;54.164;-3.124;2023-08-12T02:43:35;44.20;;;6.75;;
47009;SDS011;59230;54.164;-3.124;2023-08-12T02:46:01;38.17;;;6.22;;
47009;SDS011;59230;54.164;-3.124;2023-08-12T02:48:26;40.28;;;6.07;;
47009;SDS011;59230;54.164;-3.124;2023-08-12T02:50:52;40.45;;;6.60;;
47009;SDS011;59230;54.164;-3.124;2023-08-12T02:53:17;39.25;;;6.07;;
47009;SDS011;59230;54.164;-3.124;2023-08-12T02:55:44;40.55;;;6.90;;
47009;SDS011;59230;54.164;-3.124;2023-08-12T02:58:10;33.55;;;5.78;;
47009;SDS011;59230;54.164;-3.124;2023-08-12T03:00:35;37.97;;;7.05;;
47009;SDS011;59230;54.164;-3.124;2023-08-12T03:03:01;39.75;;;5.85;;
47009;SDS011;59230;54.164;-3.124;2023-08-12T03:05:26;41.58;;;6.32;;
47009;SDS011;59230;54.164;-3.124;2023-08-12T03:07:52;39.50;;;6.88;;
47009;SDS011;59230;54.164;-3.124;2023-08-12T03:10:17;37.40;;;5.85;;
47009;SDS011;59230;54.164;-3.124;2023-08-12T03:12:43;36.35;;;6.63;;
47009;SDS011;59230;54.164;-3.124;2023-08-12T03:15:08;33.65;;;5.93;;
47009;SDS011;59230;54.164;-3.124;2023-08-12T03:17:34;38.75;;;6.13;;
47009;SDS011;59230;54.164;-3.124;2023-08-12T03:20:00;39.63;;;6.20;;
47009;SDS011;59230;54.164;-3.124;2023-08-12T03:22:29;39.80;;;5.82;;
47009;SDS011;59230;54.164;-3.124;2023-08-12T03:24:54;32.88;;;6.13;;
47009;SDS011;59230;54.164;-3.124;2023-08-12T03:27:20;35.92;;;5.82;;
47009;SDS011;59230;54.164;-3.124;2023-08-12T03:29:45;30.90;;;5.63;;
47009;SDS011;59230;54.164;-3.124;2023-08-12T03:32:11;32.25;;;6.43;;
47009;SDS011;59230;54.164;-3.124;2023-08-12T03:34:36;40.10;;;5.85;;
47009;SDS011;59230;54.164;-3.124;2023-08-12T03:37:02;33.30;;;6.68;;
47009;SDS011;59230;54.164;-3.124;2023-08-12T03:39:27;35.58;;;6.00;;
47009;SDS011;59230;54.164;-3.124;2023-08-12T03:41:53;36.58;;;6.00;;
47009;SDS011;59230;54.164;-3.124;2023-08-12T03:44:18;31.33;;;5.65;;
47009;SDS011;59230;54.164;-3.124;2023-08-12T03:46:44;36.47;;;6.25;;
47009;SDS011;59230;54.164;-3.124;2023-08-12T03:49:09;35.97;;;6.57;;
47009;SDS011;59230;54.164;-3.124;2023-08-12T03:51:34;38.95;;;5.70;;
47009;SDS011;59230;54.164;-3.124;2023-08-12T03:54:00;36.03;;;5.60;;
47009;SDS011;59230;54.164;-3.124;2023-08-12T03:56:25;38.22;;;5.40;;
47009;SDS011;59230;54.164;-3.124;2023-08-12T03:58:51;31.02;;;5.63;;
47009;SDS011;59230;54.164;-3.124;2023-08-12T04:01:16;31.58;;;5.53;;
47009;SDS011;59230;54.164;-3.124;2023-08-12T04:03:42;33.30;;;5.93;;
47009;SDS011;59230;54.164;-3.124;2023-08-12T04:06:07;32.38;;;5.63;;
47009;SDS011;59230;54.164;-3.124;2023-08-12T04:08:33;37.22;;;6.00;;
47009;SDS011;59230;54.164;-3.124;2023-08-12T04:10:59;36.03;;;6.22;;
47009;SDS011;59230;54.164;-3.124;2023-08-12T04:13:25;40.13;;;5.53;;
47009;SDS011;59230;54.164;-3.124;2023-08-12T04:15:53;35.63;;;5.82;;
47009;SDS011;59230;54.164;-3.124;2023-08-12T04:18:18;40.47;;;5.30;;
47009;SDS011;59230;54.164;-3.124;2023-08-12T04:20:47;31.75;;;5.13;;
47009;SDS011;59230;54.164;-3.124;2023-08-12T04:23:15;30.92;;;6.43;;
47009;SDS011;59230;54.164;-3.124;2023-08-12T04:25:45;34.17;;;5.10;;
47009;SDS011;59230;54.164;-3.124;2023-08-12T04:28:12;31.50;;;5.75;;
47009;SDS011;59230;54.164;-3.124;2023-08-12T04:30:42;34.78;;;5.68;;
47009;SDS011;59230;54.164;-3.124;2023-08-12T04:33:07;30.80;;;6.03;;
47009;SDS011;59230;54.164;-3.124;2023-08-12T04:35:33;34.72;;;5.60;;
47009;SDS011;59230;54.164;-3.124;2023-08-12T04:37:58;33.80;;;4.95;;
47009;SDS011;59230;54.164;-3.124;2023-08-12T04:40:24;37.00;;;5.95;;
47009;SDS011;59230;54.164;-3.124;2023-08-12T04:42:49;35.42;;;5.45;;
47009;SDS011;59230;54.164;-3.124;2023-08-12T04:45:15;34.72;;;5.88;;
47009;SDS011;59230;54.164;-3.124;2023-08-12T04:47:40;37.72;;;6.03;;
47009;SDS011;59230;54.164;-3.124;2023-08-12T04:50:06;33.78;;;5.72;;
47009;SDS011;59230;54.164;-3.124;2023-08-12T04:52:32;26.77;;;5.57;;
47009;SDS011;59230;54.164;-3.124;2023-08-12T04:54:57;36.42;;;5.68;;
47009;SDS011;59230;54.164;-3.124;2023-08-12T04:57:23;37.70;;;7.43;;
47009;SDS011;59230;54.164;-3.124;2023-08-12T04:59:48;38.65;;;6.15;;
47009;SDS011;59230;54.164;-3.124;2023-08-12T05:02:13;39.80;;;7.10;;
47009;SDS011;59230;54.164;-3.124;2023-08-12T05:04:39;37.35;;;6.50;;
47009;SDS011;59230;54.164;-3.124;2023-08-12T05:07:07;30.23;;;6.00;;
47009;SDS011;59230;54.164;-3.124;2023-08-12T05:09:33;45.28;;;6.32;;
47009;SDS011;59230;54.164;-3.124;2023-08-12T05:11:59;32.83;;;5.55;;
47009;SDS011;59230;54.164;-3.124;2023-08-12T05:14:28;33.13;;;5.93;;
47009;SDS011;59230;54.164;-3.124;2023-08-12T05:16:53;30.08;;;5.47;;
47009;SDS011;59230;54.164;-3.124;2023-08-12T05:19:19;37.40;;;5.65;;
47009;SDS011;59230;54.164;-3.124;2023-08-12T05:21:45;33.22;;;6.18;;
47009;SDS011;59230;54.164;-3.124;2023-08-12T05:24:15;41.95;;;6.10;;
47009;SDS011;59230;54.164;-3.124;2023-08-12T05:26:43;34.53;;;6.28;;
47009;SDS011;59230;54.164;-3.124;2023-08-12T05:29:09;31.73;;;6.57;;
47009;SDS011;59230;54.164;-3.124;2023-08-12T05:31:34;39.88;;;6.07;;
47009;SDS011;59230;54.164;-3.124;2023-08-12T05:34:00;42.53;;;6.97;;
47009;SDS011;59230;54.164;-3.124;2023-08-12T05:36:25;35.40;;;6.40;;
47009;SDS011;59230;54.164;-3.124;2023-08-12T05:38:51;33.30;;;6.10;;
47009;SDS011;59230;54.164;-3.124;2023-08-12T05:41:16;33.58;;;5.45;;
47009;SDS011;59230;54.164;-3.124;2023-08-12T05:43:42;34.90;;;6.15;;
47009;SDS011;59230;54.164;-3.124;2023-08-12T05:46:07;37.95;;;6.10;;
47009;SDS011;59230;54.164;-3.124;2023-08-12T05:48:33;43.05;;;6.63;;
47009;SDS011;59230;54.164;-3.124;2023-08-12T05:50:58;43.10;;;7.80;;
47009;SDS011;59230;54.164;-3.124;2023-08-12T05:53:24;37.08;;;6.63;;
47009;SDS011;59230;54.164;-3.124;2023-08-12T05:55:49;32.33;;;5.95;;
47009;SDS011;59230;54.164;-3.124;2023-08-12T05:58:15;34.47;;;5.90;;
47009;SDS011;59230;54.164;-3.124;2023-08-12T06:00:40;37.08;;;5.38;;
47009;SDS011;59230;54.164;-3.124;2023-08-12T06:03:10;32.05;;;5.70;;
47009;SDS011;59230;54.164;-3.124;2023-08-12T06:05:35;32.65;;;5.88;;
47009;SDS011;59230;54.164;-3.124;2023-08-12T06:08:01;28.73;;;5.05;;
47009;SDS011;59230;54.164;-3.124;2023-08-12T06:10:26;36.92;;;6.28;;
47009;SDS011;59230;54.164;-3.124;2023-08-12T06:12:52;27.83;;;5.43;;
47009;SDS011;59230;54.164;-3.124;2023-08-12T06:15:17;38.67;;;6.18;;
47009;SDS011;59230;54.164;-3.124;2023-08-12T06:17:42;32.75;;;5.60;;
47009;SDS011;59230;54.164;-3.124;2023-08-12T06:20:08;27.92;;;6.45;;
47009;SDS011;59230;54.164;-3.124;2023-08-12T06:22:34;28.30;;;6.85;;
47009;SDS011;59230;54.164;-3.124;2023-08-12T06:24:59;39.53;;;6.80;;
47009;SDS011;59230;54.164;-3.124;2023-08-12T06:27:25;43.47;;;6.75;;
47009;SDS011;59230;54.164;-3.124;2023-08-12T06:29:51;36.60;;;6.60;;
47009;SDS011;59230;54.164;-3.124;2023-08-12T06:32:16;39.17;;;6.00;;
47009;SDS011;59230;54.164;-3.124;2023-08-12T06:34:42;38.20;;;5.88;;
47009;SDS011;59230;54.164;-3.124;2023-08-12T06:37:07;45.22;;;6.63;;
47009;SDS011;59230;54.164;-3.124;2023-08-12T06:39:33;48.85;;;7.57;;
47009;SDS011;59230;54.164;-3.124;2023-08-12T06:41:58;42.40;;;6.72;;
47009;SDS011;59230;54.164;-3.124;2023-08-12T06:44:24;52.67;;;8.93;;
47009;SDS011;59230;54.164;-3.124;2023-08-12T06:46:49;49.13;;;7.72;;
47009;SDS011;59230;54.164;-3.124;2023-08-12T06:49:15;47.80;;;8.60;;
47009;SDS011;59230;54.164;-3.124;2023-08-12T06:51:40;45.92;;;8.60;;
47009;SDS011;59230;54.164;-3.124;2023-08-12T06:54:06;42.00;;;7.97;;
47009;SDS011;59230;54.164;-3.124;2023-08-12T06:56:31;51.55;;;8.18;;
47009;SDS011;59230;54.164;-3.124;2023-08-12T06:58:57;41.25;;;7.85;;
47009;SDS011;59230;54.164;-3.124;2023-08-12T07:01:22;59.88;;;9.20;;
47009;SDS011;59230;54.164;-3.124;2023-08-12T07:03:48;52.80;;;9.35;;
47009;SDS011;59230;54.164;-3.124;2023-08-12T07:06:13;55.55;;;10.55;;
47009;SDS011;59230;54.164;-3.124;2023-08-12T07:08:38;38.58;;;8.68;;
47009;SDS011;59230;54.164;-3.124;2023-08-12T07:11:04;41.05;;;7.78;;
47009;SDS011;59230;54.164;-3.124;2023-08-12T07:13:30;53.67;;;9.20;;
47009;SDS011;59230;54.164;-3.124;2023-08-12T07:15:55;42.97;;;7.22;;
47009;SDS011;59230;54.164;-3.124;2023-08-12T07:18:21;58.00;;;9.15;;
47009;SDS011;59230;54.164;-3.124;2023-08-12T07:20:48;38.67;;;8.25;;
47009;SDS011;59230;54.164;-3.124;2023-08-12T07:23:13;37.42;;;8.50;;
47009;SDS011;59230;54.164;-3.124;2023-08-12T07:25:39;60.92;;;8.43;;
47009;SDS011;59230;54.164;-3.124;2023-08-12T07:28:05;52.15;;;9.13;;
47009;SDS011;59230;54.164;-3.124;2023-08-12T07:30:30;53.83;;;9.25;;
47009;SDS011;59230;54.164;-3.124;2023-08-12T07:32:56;41.90;;;8.23;;
47009;SDS011;59230;54.164;-3.124;2023-08-12T07:35:21;54.78;;;8.15;;
47009;SDS011;59230;54.164;-3.124;2023-08-12T07:37:47;48.72;;;8.93;;
47009;SDS011;59230;54.164;-3.124;2023-08-12T07:40:12;49.78;;;8.73;;
47009;SDS011;59230;54.164;-3.124;2023-08-12T07:42:38;74.82;;;10.18;;
47009;SDS011;59230;54.164;-3.124;2023-08-12T07:45:04;56.85;;;10.48;;
47009;SDS011;59230;54.164;-3.124;2023-08-12T07:47:30;62.75;;;10.93;;
47009;SDS011;59230;54.164;-3.124;2023-08-12T07:49:55;57.10;;;8.35;;
47009;SDS011;59230;54.164;-3.124;2023-08-12T07:52:21;49.50;;;7.35;;
47009;SDS011;59230;54.164;-3.124;2023-08-12T07:54:46;54.65;;;8.30;;
47009;SDS011;59230;54.164;-3.124;2023-08-12T07:57:12;56.03;;;6.53;;
47009;SDS011;59230;54.164;-3.124;2023-08-12T07:59:37;66.95;;;7.65;;
47009;SDS011;59230;54.164;-3.124;2023-08-12T08:02:03;56.25;;;7.88;;
47009;SDS011;59230;54.164;-3.124;2023-08-12T08:04:28;46.33;;;7.18;;
47009;SDS011;59230;54.164;-3.124;2023-08-12T08:06:53;40.88;;;6.38;;
47009;SDS011;59230;54.164;-3.124;2023-08-12T08:09:19;42.45;;;5.55;;
47009;SDS011;59230;54.164;-3.124;2023-08-12T08:11:44;53.72;;;5.85;;
47009;SDS011;59230;54.164;-3.124;2023-08-12T08:14:10;48.22;;;7.10;;
47009;SDS011;59230;54.164;-3.124;2023-08-12T08:16:35;47.58;;;6.65;;
47009;SDS011;59230;54.164;-3.124;2023-08-12T08:19:01;47.58;;;7.57;;
47009;SDS011;59230;54.164;-3.124;2023-08-12T08:21:27;51.60;;;8.60;;
47009;SDS011;59230;54.164;-3.124;2023-08-12T08:23:52;58.97;;;8.70;;
47009;SDS011;59230;54.164;-3.124;2023-08-12T08:26:17;53.65;;;9.40;;
47009;SDS011;59230;54.164;-3.124;2023-08-12T08:28:43;48.97;;;8.40;;
47009;SDS011;59230;54.164;-3.124;2023-08-12T08:31:09;63.70;;;8.98;;
47009;SDS011;59230;54.164;-3.124;2023-08-12T08:33:34;46.95;;;7.85;;
47009;SDS011;59230;54.164;-3.124;2023-08-12T08:35:59;52.58;;;7.10;;
47009;SDS011;59230;54.164;-3.124;2023-08-12T08:38:25;68.70;;;7.78;;
47009;SDS011;59230;54.164;-3.124;2023-08-12T08:40:50;46.92;;;6.40;;
47009;SDS011;59230;54.164;-3.124;2023-08-12T08:43:18;45.50;;;6.43;;
47009;SDS011;59230;54.164;-3.124;2023-08-12T08:45:49;45.35;;;5.97;;
47009;SDS011;59230;54.164;-3.124;2023-08-12T08:48:17;42.47;;;4.80;;
47009;SDS011;59230;54.164;-3.124;2023-08-12T08:50:43;27.13;;;4.07;;
47009;SDS011;59230;54.164;-3.124;2023-08-12T08:53:10;36.95;;;4.65;;
47009;SDS011;59230;54.164;-3.124;2023-08-12T08:55:38;40.53;;;5.13;;
47009;SDS011;59230;54.164;-3.124;2023-08-12T08:58:04;50.10;;;5.72;;
47009;SDS011;59230;54.164;-3.124;2023-08-12T09:00:30;35.50;;;4.53;;
47009;SDS011;59230;54.164;-3.124;2023-08-12T09:02:56;53.95;;;6.72;;
47009;SDS011;59230;54.164;-3.124;2023-08-12T09:05:22;46.30;;;5.60;;
47009;SDS011;59230;54.164;-3.124;2023-08-12T09:07:48;50.33;;;4.95;;
47009;SDS011;59230;54.164;-3.124;2023-08-12T09:10:15;37.58;;;4.93;;
47009;SDS011;59230;54.164;-3.124;2023-08-12T09:12:42;39.13;;;3.90;;
47009;SDS011;59230;54.164;-3.124;2023-08-12T09:15:08;35.33;;;3.92;;
47009;SDS011;59230;54.164;-3.124;2023-08-12T09:17:34;36.25;;;4.50;;
47009;SDS011;59230;54.164;-3.124;2023-08-12T09:20:00;38.72;;;4.63;;
47009;SDS011;59230;54.164;-3.124;2023-08-12T09:22:25;51.28;;;5.13;;
47009;SDS011;59230;54.164;-3.124;2023-08-12T09:24:57;35.30;;;4.88;;
47009;SDS011;59230;54.164;-3.124;2023-08-12T09:27:23;43.25;;;5.78;;
47009;SDS011;59230;54.164;-3.124;2023-08-12T09:29:49;34.53;;;5.22;;
47009;SDS011;59230;54.164;-3.124;2023-08-12T09:32:19;35.05;;;4.47;;
47009;SDS011;59230;54.164;-3.124;2023-08-12T09:34:51;25.45;;;3.72;;
47009;SDS011;59230;54.164;-3.124;2023-08-12T09:37:18;28.33;;;3.00;;
47009;SDS011;59230;54.164;-3.124;2023-08-12T09:39:44;29.38;;;3.70;;
47009;SDS011;59230;54.164;-3.124;2023-08-12T09:42:11;26.70;;;3.22;;
47009;SDS011;59230;54.164;-3.124;2023-08-12T09:44:37;33.03;;;3.50;;
47009;SDS011;59230;54.164;-3.124;2023-08-12T09:47:03;33.70;;;4.38;;
47009;SDS011;59230;54.164;-3.124;2023-08-12T09:49:29;31.50;;;4.80;;
47009;SDS011;59230;54.164;-3.124;2023-08-12T09:51:55;31.52;;;4.00;;
47009;SDS011;59230;54.164;-3.124;2023-08-12T09:54:21;33.53;;;4.07;;
47009;SDS011;59230;54.164;-3.124;2023-08-12T09:56:47;31.15;;;4.78;;
47009;SDS011;59230;54.164;-3.124;2023-08-12T09:59:15;31.77;;;3.72;;
47009;SDS011;59230;54.164;-3.124;2023-08-12T10:01:45;42.00;;;4.70;;
47009;SDS011;59230;54.164;-3.124;2023-08-12T10:04:11;33.85;;;4.53;;
47009;SDS011;59230;54.164;-3.124;2023-08-12T10:06:40;35.08;;;4.78;;
47009;SDS011;59230;54.164;-3.124;2023-08-12T10:09:06;34.15;;;5.25;;
47009;SDS011;59230;54.164;-3.124;2023-08-12T10:11:33;35.78;;;5.00;;
47009;SDS011;59230;54.164;-3.124;2023-08-12T10:14:00;36.22;;;4.95;;
47009;SDS011;59230;54.164;-3.124;2023-08-12T10:16:26;30.70;;;5.45;;
47009;SDS011;59230;54.164;-3.124;2023-08-12T10:18:52;47.15;;;5.63;;
47009;SDS011;59230;54.164;-3.124;2023-08-12T10:21:17;34.58;;;4.88;;
47009;SDS011;59230;54.164;-3.124;2023-08-12T10:23:43;44.08;;;6.00;;
47009;SDS011;59230;54.164;-3.124;2023-08-12T10:26:09;46.58;;;5.28;;
47009;SDS011;59230;54.164;-3.124;2023-08-12T10:28:34;39.25;;;5.40;;
47009;SDS011;59230;54.164;-3.124;2023-08-12T10:31:03;32.85;;;5.07;;
47009;SDS011;59230;54.164;-3.124;2023-08-12T10:33:29;41.03;;;4.78;;
47009;SDS011;59230;54.164;-3.124;2023-08-12T10:35:55;34.40;;;4.85;;
47009;SDS011;59230;54.164;-3.124;2023-08-12T10:38:21;44.22;;;5.28;;
47009;SDS011;59230;54.164;-3.124;2023-08-12T10:40:47;35.80;;;5.03;;
47009;SDS011;59230;54.164;-3.124;2023-08-12T10:43:13;40.72;;;5.32;;
47009;SDS011;59230;54.164;-3.124;2023-08-12T10:45:57;39.58;;;4.80;;
47009;SDS011;59230;54.164;-3.124;2023-08-12T10:48:23;47.45;;;5.50;;
47009;SDS011;59230;54.164;-3.124;2023-08-12T10:50:53;44.30;;;5.20;;
47009;SDS011;59230;54.164;-3.124;2023-08-12T10:53:24;48.72;;;5.72;;
47009;SDS011;59230;54.164;-3.124;2023-08-12T10:55:54;46.92;;;5.90;;
47009;SDS011;59230;54.164;-3.124;2023-08-12T10:58:26;44.13;;;5.70;;
47009;SDS011;59230;54.164;-3.124;2023-08-12T11:00:55;39.53;;;6.32;;
47009;SDS011;59230;54.164;-3.124;2023-08-12T11:03:22;34.72;;;6.03;;
47009;SDS011;59230;54.164;-3.124;2023-08-12T11:05:48;50.42;;;7.25;;
47009;SDS011;59230;54.164;-3.124;2023-08-12T11:08:13;47.45;;;5.85;;
47009;SDS011;59230;54.164;-3.124;2023-08-12T11:10:39;40.05;;;5.65;;
47009;SDS011;59230;54.164;-3.124;2023-08-12T11:13:05;37.42;;;5.57;;
47009;SDS011;59230;54.164;-3.124;2023-08-12T11:15:37;28.58;;;5.82;;
47009;SDS011;59230;54.164;-3.124;2023-08-12T11:18:13;39.45;;;5.75;;
47009;SDS011;59230;54.164;-3.124;2023-08-12T11:20:41;43.45;;;5.70;;
47009;SDS011;59230;54.164;-3.124;2023-08-12T11:23:08;32.90;;;6.15;;
47009;SDS011;59230;54.164;-3.124;2023-08-12T11:25:38;38.83;;;5.90;;
47009;SDS011;59230;54.164;-3.124;2023-08-12T11:28:05;35.13;;;5.07;;
47009;SDS011;59230;54.164;-3.124;2023-08-12T11:30:31;37.90;;;5.53;;
47009;SDS011;59230;54.164;-3.124;2023-08-12T11:32:56;36.53;;;5.00;;
47009;SDS011;59230;54.164;-3.124;2023-08-12T11:35:23;38.13;;;5.68;;
47009;SDS011;59230;54.164;-3.124;2023-08-12T11:37:51;39.10;;;5.65;;
47009;SDS011;59230;54.164;-3.124;2023-08-12T11:40:21;34.28;;;5.15;;
47009;SDS011;59230;54.164;-3.124;2023-08-12T11:42:47;32.60;;;4.65;;
47009;SDS011;59230;54.164;-3.124;2023-08-12T11:45:21;31.65;;;5.05;;
47009;SDS011;59230;54.164;-3.124;2023-08-12T11:47:48;25.83;;;4.50;;
47009;SDS011;59230;54.164;-3.124;2023-08-12T11:50:18;31.73;;;4.88;;
47009;SDS011;59230;54.164;-3.124;2023-08-12T11:52:47;31.05;;;4.93;;
47009;SDS011;59230;54.164;-3.124;2023-08-12T11:55:13;27.55;;;4.63;;
47009;SDS011;59230;54.164;-3.124;2023-08-12T11:57:41;38.22;;;4.88;;
47009;SDS011;59230;54.164;-3.124;2023-08-12T12:00:09;28.33;;;4.10;;
47009;SDS011;59230;54.164;-3.124;2023-08-12T12:02:56;30.42;;;4.38;;
47009;SDS011;59230;54.164;-3.124;2023-08-12T12:05:23;25.85;;;3.58;;
47009;SDS011;59230;54.164;-3.124;2023-08-12T12:07:52;31.00;;;4.10;;
47009;SDS011;59230;54.164;-3.124;2023-08-12T12:10:28;18.02;;;3.72;;
47009;SDS011;59230;54.164;-3.124;2023-08-12T12:12:55;23.50;;;3.72;;
47009;SDS011;59230;54.164;-3.124;2023-08-12T12:15:21;21.02;;;3.90;;
47009;SDS011;59230;54.164;-3.124;2023-08-12T12:17:47;26.25;;;4.20;;
47009;SDS011;59230;54.164;-3.124;2023-08-12T12:20:13;22.92;;;4.20;;
47009;SDS011;59230;54.164;-3.124;2023-08-12T12:22:40;26.13;;;5.28;;
47009;SDS011;59230;54.164;-3.124;2023-08-12T12:25:11;22.17;;;5.00;;
47009;SDS011;59230;54.164;-3.124;2023-08-12T12:27:37;25.50;;;4.07;;
47009;SDS011;59230;54.164;-3.124;2023-08-12T12:30:04;28.33;;;4.38;;
47009;SDS011;59230;54.164;-3.124;2023-08-12T12:32:32;24.10;;;5.15;;
47009;SDS011;59230;54.164;-3.124;2023-08-12T12:34:57;27.60;;;4.72;;
47009;SDS011;59230;54.164;-3.124;2023-08-12T12:37:23;32.85;;;4.53;;
47009;SDS011;59230;54.164;-3.124;2023-08-12T12:39:48;25.55;;;3.95;;
47009;SDS011;59230;54.164;-3.124;2023-08-12T12:42:14;31.73;;;5.18;;
47009;SDS011;59230;54.164;-3.124;2023-08-12T12:44:39;16.77;;;3.95;;
47009;SDS011;59230;54.164;-3.124;2023-08-12T12:47:05;30.35;;;4.72;;
47009;SDS011;59230;54.164;-3.124;2023-08-12T12:49:30;20.75;;;4.00;;
47009;SDS011;59230;54.164;-3.124;2023-08-12T12:51:56;18.50;;;3.63;;
47009;SDS011;59230;54.164;-3.124;2023-08-12T12:54:21;26.52;;;4.72;;
47009;SDS011;59230;54.164;-3.124;2023-08-12T12:56:47;21.95;;;4.57;;
47009;SDS011;59230;54.164;-3.124;2023-08-12T12:59:12;22.58;;;4.20;;
47009;SDS011;59230;54.164;-3.124;2023-08-12T13:01:39;26.05;;;4.47;;
47009;SDS011;59230;54.164;-3.124;2023-08-12T13:04:05;29.08;;;4.55;;
47009;SDS011;59230;54.164;-3.124;2023-08-12T13:06:33;29.30;;;4.63;;
47009;SDS011;59230;54.164;-3.124;2023-08-12T13:09:00;19.95;;;3.60;;
47009;SDS011;59230;54.164;-3.124;2023-08-12T13:11:26;32.58;;;4.43;;
47009;SDS011;59230;54.164;-3.124;2023-08-12T13:13:51;18.98;;;3.80;;
47009;SDS011;59230;54.164;-3.124;2023-08-12T13:16:19;25.38;;;4.00;;
47009;SDS011;59230;54.164;-3.124;2023-08-12T13:18:44;19.58;;;4.03;;
47009;SDS011;59230;54.164;-3.124;2023-08-12T13:21:10;21.50;;;4.50;;
47009;SDS011;59230;54.164;-3.124;2023-08-12T13:23:35;26.05;;;4.57;;
47009;SDS011;59230;54.164;-3.124;2023-08-12T13:26:01;18.55;;;3.50;;
47009;SDS011;59230;54.164;-3.124;2023-08-12T13:28:26;23.63;;;3.65;;
47009;SDS011;59230;54.164;-3.124;2023-08-12T13:30:52;24.48;;;3.80;;
47009;SDS011;59230;54.164;-3.124;2023-08-12T13:33:17;18.10;;;3.60;;
47009;SDS011;59230;54.164;-3.124;2023-08-12T13:35:43;17.45;;;3.20;;
47009;SDS011;59230;54.164;-3.124;2023-08-12T13:38:09;22.13;;;4.00;;
47009;SDS011;59230;54.164;-3.124;2023-08-12T13:40:34;20.15;;;3.63;;
47009;SDS011;59230;54.164;-3.124;2023-08-12T13:43:00;15.07;;;3.53;;
47009;SDS011;59230;54.164;-3.124;2023-08-12T13:45:25;21.10;;;3.63;;
47009;SDS011;59230;54.164;-3.124;2023-08-12T13:47:51;21.58;;;4.65;;
47009;SDS011;59230;54.164;-3.124;2023-08-12T13:50:17;22.85;;;4.03;;
47009;SDS011;59230;54.164;-3.124;2023-08-12T13:52:45;22.00;;;3.80;;
47009;SDS011;59230;54.164;-3.124;2023-08-12T13:55:12;29.63;;;4.72;;
47009;SDS011;59230;54.164;-3.124;2023-08-12T13:57:37;17.77;;;3.78;;
47009;SDS011;59230;54.164;-3.124;2023-08-12T14:00:03;19.90;;;3.58;;
47009;SDS011;59230;54.164;-3.124;2023-08-12T14:02:34;23.52;;;4.20;;
47009;SDS011;59230;54.164;-3.124;2023-08-12T14:05:00;17.35;;;3.63;;
47009;SDS011;59230;54.164;-3.124;2023-08-12T14:07:26;20.92;;;3.55;;
47009;SDS011;59230;54.164;-3.124;2023-08-12T14:09:51;23.90;;;4.15;;
47009;SDS011;59230;54.164;-3.124;2023-08-12T14:12:17;19.85;;;3.53;;
47009;SDS011;59230;54.164;-3.124;2023-08-12T14:14:42;20.88;;;3.83;;
47009;SDS011;59230;54.164;-3.124;2023-08-12T14:17:07;26.30;;;3.83;;
47009;SDS011;59230;54.164;-3.124;2023-08-12T14:19:33;22.00;;;4.10;;